Time;durP1;ratioP1;P1;durP2;ratioP2;P2;SDS_P1;SDS_P2;PMS_P1;PMS_P2;Temp;Humidity;BMP_temperature;BMP_pressure;BME280_temperature;BME280_humidity;BME280_pressure;Samples;Min_cycle;Max_cycle;Signal;HPM_P1;HPM_P2
2021/09/21 00:01:30;;;;;;;;;22.75;21.50;;;;;-146.80;100.00;64830.25;5075326;27;45235;-64
2021/09/21 00:03:55;;;;;;;;;32.50;30.00;;;;;-146.80;100.00;64830.25;5075491;27;45303;-62
2021/09/21 00:06:20;;;;;;;;;29.25;26.00;;;;;-146.80;100.00;64830.25;5075841;27;45532;-64
2021/09/21 00:08:46;;;;;;;;;32.25;29.00;;;;;-146.80;100.00;64830.25;5076167;27;46456;-63
2021/09/21 00:11:12;;;;;;;;;33.75;29.00;;;;;-146.80;100.00;64830.25;5091026;27;45455;-63
2021/09/21 00:13:37;;;;;;;;;35.75;27.75;;;;;-146.80;100.00;64830.25;5075193;27;45428;-63
2021/09/21 00:16:03;;;;;;;;;35.25;31.00;;;;;-146.80;100.00;64830.25;5075281;27;45578;-67
2021/09/21 00:18:29;;;;;;;;;38.75;31.25;;;;;-146.80;100.00;64830.25;5074878;27;46192;-64
2021/09/21 00:20:54;;;;;;;;;34.25;30.50;;;;;-146.80;100.00;64830.25;5091046;27;45413;-65
2021/09/21 00:23:20;;;;;;;;;33.50;30.50;;;;;-146.80;100.00;64830.25;5074905;27;45655;-64
2021/09/21 00:25:46;;;;;;;;;31.75;25.75;;;;;-146.80;100.00;64830.25;5075446;28;45314;-64
2021/09/21 00:28:11;;;;;;;;;32.25;28.50;;;;;-146.80;100.00;64830.25;5074965;27;46368;-63
2021/09/21 00:30:44;;;;;;;;;32.75;28.00;;;;;-146.80;100.00;64830.25;5056947;28;45810;-62
2021/09/21 00:33:16;;;;;;;;;40.50;33.50;;;;;-146.80;100.00;64830.25;5075414;27;45402;-66
2021/09/21 00:35:42;;;;;;;;;38.25;31.25;;;;;-146.80;100.00;64830.25;5075428;27;45437;-66
2021/09/21 00:38:07;;;;;;;;;42.50;35.00;;;;;-146.80;100.00;64830.25;5074915;27;45416;-65
2021/09/21 00:40:32;;;;;;;;;37.00;31.75;;;;;-146.80;100.00;64830.25;5075272;27;45503;-62
2021/09/21 00:43:02;;;;;;;;;33.00;31.25;;;;;-146.80;100.00;64830.25;5075082;27;45311;-65
2021/09/21 00:45:28;;;;;;;;;31.75;28.00;;;;;-146.80;100.00;64830.25;5091161;27;45447;-64
2021/09/21 00:47:55;;;;;;;;;41.50;32.50;;;;;-146.80;100.00;64830.25;5090892;27;48061;-66
2021/09/21 00:50:23;;;;;;;;;35.50;31.75;;;;;-146.80;100.00;64830.25;5075199;27;45248;-64
2021/09/21 00:52:49;;;;;;;;;37.00;32.25;;;;;-146.80;100.00;64830.25;5075259;28;45289;-66
2021/09/21 00:55:17;;;;;;;;;43.50;33.50;;;;;-146.80;100.00;64830.25;5075074;27;45375;-65
2021/09/21 00:57:43;;;;;;;;;36.00;29.50;;;;;-146.80;100.00;64830.25;5074830;27;45292;-63
2021/09/21 01:00:12;;;;;;;;;37.75;31.00;;;;;-146.80;100.00;64830.25;5074854;28;45338;-65
2021/09/21 01:02:37;;;;;;;;;40.50;32.50;;;;;-146.80;100.00;64830.25;5075129;27;45377;-63
2021/09/21 01:05:04;;;;;;;;;37.50;33.75;;;;;-146.80;100.00;64830.25;5075057;27;45662;-67
2021/09/21 01:07:30;;;;;;;;;39.75;31.75;;;;;-146.80;100.00;64830.25;5074782;27;47287;-69
2021/09/21 01:10:07;;;;;;;;;41.25;32.00;;;;;-146.80;100.00;64830.25;5074625;27;45386;-69
2021/09/21 01:12:33;;;;;;;;;39.25;31.50;;;;;-146.80;100.00;64830.25;5074842;27;45311;-66
2021/09/21 01:14:59;;;;;;;;;42.50;34.75;;;;;-146.80;100.00;64830.25;5074970;27;45364;-64
2021/09/21 01:17:25;;;;;;;;;42.75;34.25;;;;;-146.80;100.00;64830.25;5090585;27;46717;-62
2021/09/21 01:19:50;;;;;;;;;44.75;35.00;;;;;-146.80;100.00;64830.25;5075509;28;45177;-63
2021/09/21 01:22:16;;;;;;;;;44.50;34.50;;;;;-146.80;100.00;64830.25;5074768;27;45324;-65
2021/09/21 01:24:41;;;;;;;;;44.25;37.50;;;;;-146.80;100.00;64830.25;5075201;28;45342;-63
2021/09/21 01:27:07;;;;;;;;;39.25;31.25;;;;;-146.80;100.00;64830.25;5074815;27;46021;-65
2021/09/21 01:29:32;;;;;;;;;42.75;34.00;;;;;-146.80;100.00;64830.25;5074774;28;45363;-67
2021/09/21 01:31:58;;;;;;;;;42.75;35.75;;;;;-146.80;100.00;64830.25;5076105;27;45309;-65
2021/09/21 01:34:25;;;;;;;;;40.00;35.25;;;;;-146.80;100.00;64830.25;5076759;27;45393;-65
2021/09/21 01:36:50;;;;;;;;;42.00;34.50;;;;;-146.80;100.00;64830.25;5077024;28;47106;-61
2021/09/21 01:39:16;;;;;;;;;42.25;35.50;;;;;-146.80;100.00;64830.25;5078030;27;45495;-62
2021/09/21 01:41:41;;;;;;;;;40.00;35.00;;;;;-146.80;100.00;64830.25;5078222;27;45326;-63
2021/09/21 01:44:07;;;;;;;;;45.75;36.75;;;;;-146.80;100.00;64830.25;5078369;27;45401;-63
2021/09/21 01:46:33;;;;;;;;;49.75;38.25;;;;;-146.80;100.00;64830.25;5077769;27;46544;-65
2021/09/21 01:48:58;;;;;;;;;45.75;37.50;;;;;-146.80;100.00;64830.25;5078066;27;45387;-65
2021/09/21 01:51:49;;;;;;;;;43.50;33.50;;;;;-146.80;100.00;64830.25;5078452;27;45243;-64
2021/09/21 01:59:25;;;;;;;;;42.25;36.00;;;;;-146.80;100.00;64830.25;5078223;28;45404;-63
2021/09/21 02:01:50;;;;;;;;;49.00;38.25;;;;;-146.80;100.00;64830.25;5077722;27;45292;-63
2021/09/21 02:04:16;;;;;;;;;47.50;38.50;;;;;-146.80;100.00;64830.25;5077965;27;46167;-64
2021/09/21 02:06:42;;;;;;;;;48.75;36.75;;;;;-146.80;100.00;64830.25;5077159;27;45347;-64
2021/09/21 02:09:10;;;;;;;;;47.75;36.50;;;;;-146.80;100.00;64830.25;5093046;27;45420;-62
2021/09/21 02:11:37;;;;;;;;;45.75;35.00;;;;;-146.80;100.00;64830.25;5077418;28;45306;-64
2021/09/21 02:14:03;;;;;;;;;46.50;36.50;;;;;-146.80;100.00;64830.25;5077539;27;45469;-65
2021/09/21 02:16:31;;;;;;;;;45.75;38.00;;;;;-146.80;100.00;64830.25;5076942;28;46645;-64
2021/09/21 02:18:57;;;;;;;;;45.25;35.25;;;;;-146.80;100.00;64830.25;5077650;28;45798;-61
2021/09/21 02:21:23;;;;;;;;;43.75;36.50;;;;;-146.80;100.00;64830.25;5077610;27;45260;-63
2021/09/21 02:23:52;;;;;;;;;39.25;35.25;;;;;-146.80;100.00;64830.25;5077583;27;45335;-64
2021/09/21 02:26:18;;;;;;;;;47.25;36.00;;;;;-146.80;100.00;64830.25;5077155;27;46271;-62
2021/09/21 02:28:43;;;;;;;;;53.25;38.75;;;;;-146.80;100.00;64830.25;5077144;27;45353;-66
2021/09/21 02:31:09;;;;;;;;;45.75;35.50;;;;;-146.80;100.00;64830.25;5077299;27;45350;-65
2021/09/21 02:33:35;;;;;;;;;47.25;38.50;;;;;-146.80;100.00;64830.25;5077550;27;45549;-63
2021/09/21 02:36:01;;;;;;;;;49.75;39.75;;;;;-146.80;100.00;64830.25;5076993;27;46109;-66
2021/09/21 02:38:26;;;;;;;;;49.00;39.25;;;;;-146.80;100.00;64830.25;5077504;27;45296;-64
2021/09/21 02:40:52;;;;;;;;;49.00;38.75;;;;;-146.80;100.00;64830.25;5077139;27;45181;-64
2021/09/21 02:43:17;;;;;;;;;47.00;37.75;;;;;-146.80;100.00;64830.25;5075909;28;45640;-62
2021/09/21 02:45:42;;;;;;;;;50.50;39.50;;;;;-146.80;100.00;64830.25;5091798;27;45892;-65
2021/09/21 02:48:08;;;;;;;;;42.25;35.00;;;;;-146.80;100.00;64830.25;5076912;27;45264;-66
2021/09/21 02:50:34;;;;;;;;;50.50;39.75;;;;;-146.80;100.00;64830.25;5076778;28;45403;-64
2021/09/21 02:53:00;;;;;;;;;46.50;37.50;;;;;-146.80;100.00;64830.25;5077176;28;45400;-62
2021/09/21 02:55:25;;;;;;;;;46.25;36.00;;;;;-146.80;100.00;64830.25;5076697;27;46192;-62
2021/09/21 02:57:51;;;;;;;;;48.25;39.25;;;;;-146.80;100.00;64830.25;5076467;28;45447;-62
2021/09/21 03:00:22;;;;;;;;;48.75;40.00;;;;;-146.80;100.00;64830.25;5076722;27;45542;-62
2021/09/21 03:02:47;;;;;;;;;47.50;39.00;;;;;-146.80;100.00;64830.25;5076672;27;45377;-61
2021/09/21 03:05:36;;;;;;;;;49.00;38.25;;;;;-146.80;100.00;64830.25;5092119;27;48230;-65
2021/09/21 03:08:16;;;;;;;;;51.00;41.00;;;;;-146.80;100.00;64830.25;5076302;27;45340;-64
2021/09/21 03:13:27;;;;;;;;;45.25;38.50;;;;;-146.80;100.00;64830.25;5076631;27;45244;-62
2021/09/21 03:18:37;;;;;;;;;48.25;38.75;;;;;-146.80;100.00;64830.25;5076567;28;45332;-66
2021/09/21 03:21:03;;;;;;;;;49.75;40.25;;;;;-146.80;100.00;64830.25;5076309;27;45244;-68
2021/09/21 03:23:29;;;;;;;;;54.75;43.50;;;;;-146.80;100.00;64830.25;5077254;28;45279;-62
2021/09/21 03:25:54;;;;;;;;;45.50;35.50;;;;;-146.80;100.00;64830.25;5076897;27;46513;-68
2021/09/21 03:28:20;;;;;;;;;54.50;44.25;;;;;-146.80;100.00;64830.25;5076457;27;45793;-69
2021/09/21 03:30:45;;;;;;;;;49.50;39.50;;;;;-146.80;100.00;64830.25;5076634;27;45276;-69
2021/09/21 03:33:11;;;;;;;;;52.00;42.75;;;;;-146.80;100.00;64830.25;5092114;27;45629;-61
2021/09/21 03:35:37;;;;;;;;;53.75;41.50;;;;;-146.80;100.00;64830.25;5076363;27;46014;-62
2021/09/21 03:38:03;;;;;;;;;52.50;43.00;;;;;-146.80;100.00;64830.25;5076511;27;45314;-62
2021/09/21 03:40:28;;;;;;;;;54.25;42.25;;;;;-146.80;100.00;64830.25;5076989;28;45452;-62
2021/09/21 03:42:54;;;;;;;;;49.50;40.50;;;;;-146.80;100.00;64830.25;5076117;28;45543;-65
2021/09/21 03:45:19;;;;;;;;;55.75;41.00;;;;;-146.80;100.00;64830.25;5091392;27;47243;-64
2021/09/21 03:47:45;;;;;;;;;52.50;40.25;;;;;-146.80;100.00;64830.25;5075981;27;45459;-62
2021/09/21 03:50:11;;;;;;;;;56.50;45.75;;;;;-146.80;100.00;64830.25;5076010;27;45376;-66
2021/09/21 03:52:36;;;;;;;;;52.25;41.00;;;;;-146.80;100.00;64830.25;5076327;27;45338;-69
2021/09/21 03:55:03;;;;;;;;;53.75;43.00;;;;;-146.80;100.00;64830.25;5074235;28;47826;-64
2021/09/21 03:57:29;;;;;;;;;56.00;43.25;;;;;-146.80;100.00;64830.25;5075234;28;45377;-65
2021/09/21 03:59:54;;;;;;;;;52.75;41.00;;;;;-146.80;100.00;64830.25;5076264;28;45182;-62
2021/09/21 04:02:20;;;;;;;;;58.50;45.50;;;;;-146.80;100.00;64830.25;5076025;27;45348;-62
2021/09/21 04:04:45;;;;;;;;;55.75;43.50;;;;;-146.80;100.00;64830.25;5074354;28;47077;-65
2021/09/21 04:07:11;;;;;;;;;52.50;43.00;;;;;-146.80;100.00;64830.25;5091469;27;45261;-66
2021/09/21 04:09:36;;;;;;;;;55.00;42.00;;;;;-146.80;100.00;64830.25;5075697;27;45438;-64
2021/09/21 04:12:02;;;;;;;;;50.00;38.00;;;;;-146.80;100.00;64830.25;5074748;28;45461;-68
2021/09/21 04:14:27;;;;;;;;;51.50;41.75;;;;;-146.80;100.00;64830.25;5075868;27;46035;-65
2021/09/21 04:16:52;;;;;;;;;55.00;44.00;;;;;-146.80;100.00;64830.25;5075527;27;45773;-67
2021/09/21 04:19:18;;;;;;;;;51.75;41.25;;;;;-146.80;100.00;64830.25;5076217;27;45438;-65
2021/09/21 04:21:43;;;;;;;;;53.25;42.75;;;;;-146.80;100.00;64830.25;5074418;28;45439;-67
2021/09/21 04:24:09;;;;;;;;;55.25;42.50;;;;;-146.80;100.00;64830.25;5075585;27;45613;-63
2021/09/21 04:26:34;;;;;;;;;49.25;39.50;;;;;-146.80;100.00;64830.25;5075208;27;45361;-68
2021/09/21 04:28:59;;;;;;;;;53.50;41.50;;;;;-146.80;100.00;64830.25;5091461;27;45690;-65
2021/09/21 04:31:27;;;;;;;;;54.75;43.50;;;;;-146.80;100.00;64830.25;5075686;27;45315;-64
2021/09/21 04:33:53;;;;;;;;;51.00;41.25;;;;;-146.80;100.00;64830.25;5075447;27;45375;-63
2021/09/21 04:36:19;;;;;;;;;51.00;40.00;;;;;-146.80;100.00;64830.25;5075447;27;45254;-61
2021/09/21 04:38:45;;;;;;;;;56.75;44.75;;;;;-146.80;100.00;64830.25;5075504;27;45391;-65
2021/09/21 04:41:11;;;;;;;;;55.25;44.25;;;;;-146.80;100.00;64830.25;5091193;27;45257;-61
2021/09/21 04:43:37;;;;;;;;;53.00;41.50;;;;;-146.80;100.00;64830.25;5075333;27;46403;-65
2021/09/21 04:46:07;;;;;;;;;60.75;45.50;;;;;-146.80;100.00;64830.25;5091080;27;45334;-63
2021/09/21 04:48:33;;;;;;;;;54.75;44.00;;;;;-146.80;100.00;64830.25;5091081;27;45416;-64
2021/09/21 04:50:59;;;;;;;;;56.25;45.00;;;;;-146.80;100.00;64830.25;5075419;28;45336;-62
2021/09/21 04:53:24;;;;;;;;;52.00;39.00;;;;;-146.80;100.00;64830.25;5075159;27;46439;-62
2021/09/21 04:55:50;;;;;;;;;56.75;44.00;;;;;-146.80;100.00;64830.25;5075036;27;45224;-65
2021/09/21 04:58:16;;;;;;;;;56.00;44.00;;;;;-146.80;100.00;64830.25;5074951;27;45212;-63
2021/09/21 05:00:41;;;;;;;;;53.75;41.00;;;;;-146.80;100.00;64830.25;5075130;27;45434;-62
2021/09/21 05:03:06;;;;;;;;;57.50;45.50;;;;;-146.80;100.00;64830.25;5073613;28;47673;-64
2021/09/21 05:05:32;;;;;;;;;51.75;40.75;;;;;-146.80;100.00;64830.25;5075290;27;45318;-65
2021/09/21 05:07:58;;;;;;;;;55.50;43.00;;;;;-146.80;100.00;64830.25;5075182;27;45322;-64
2021/09/21 05:10:24;;;;;;;;;55.00;44.00;;;;;-146.80;100.00;64830.25;5077736;27;45419;-62
2021/09/21 05:12:49;;;;;;;;;55.50;45.50;;;;;-146.80;100.00;64830.25;5076987;28;46462;-62
2021/09/21 05:15:15;;;;;;;;;57.75;46.50;;;;;-146.80;100.00;64830.25;5077077;28;45940;-62
2021/09/21 05:17:40;;;;;;;;;55.75;44.00;;;;;-146.80;100.00;64830.25;5078721;27;45411;-62
2021/09/21 05:20:06;;;;;;;;;58.25;44.00;;;;;-146.80;100.00;64830.25;5078807;27;45452;-61
2021/09/21 05:22:32;;;;;;;;;56.00;41.25;;;;;-146.80;100.00;64830.25;5094210;27;47607;-63
2021/09/21 05:24:57;;;;;;;;;51.25;42.00;;;;;-146.80;100.00;64830.25;5078347;28;45338;-63
2021/09/21 05:27:24;;;;;;;;;51.75;41.75;;;;;-146.80;100.00;64830.25;5078464;27;45205;-66
2021/09/21 05:29:50;;;;;;;;;52.50;42.00;;;;;-146.80;100.00;64830.25;5078365;27;45472;-67
2021/09/21 05:32:15;;;;;;;;;57.75;43.75;;;;;-146.80;100.00;64830.25;5077889;27;46400;-67
2021/09/21 05:34:40;;;;;;;;;54.25;43.00;;;;;-146.80;100.00;64830.25;5077874;27;45302;-65
2021/09/21 05:37:06;;;;;;;;;51.25;40.50;;;;;-146.80;100.00;64830.25;5078334;27;45847;-63
2021/09/21 05:39:31;;;;;;;;;54.50;43.00;;;;;-146.80;100.00;64830.25;5078538;28;45444;-66
2021/09/21 05:41:57;;;;;;;;;52.75;41.50;;;;;-146.80;100.00;64830.25;5076400;28;47134;-64
2021/09/21 05:44:23;;;;;;;;;55.00;43.75;;;;;-146.80;100.00;64830.25;5078374;27;45431;-64
2021/09/21 05:46:49;;;;;;;;;50.50;41.00;;;;;-146.80;100.00;64830.25;5078248;27;45384;-65
2021/09/21 05:49:15;;;;;;;;;52.50;43.00;;;;;-146.80;100.00;64830.25;5076601;28;45567;-65
2021/09/21 05:51:41;;;;;;;;;56.00;42.00;;;;;-146.80;100.00;64830.25;5078210;27;45396;-65
2021/09/21 05:54:06;;;;;;;;;54.25;42.25;;;;;-146.80;100.00;64830.25;5093850;27;45255;-64
2021/09/21 05:56:32;;;;;;;;;46.25;38.75;;;;;-146.80;100.00;64830.25;5077849;27;45231;-65
2021/09/21 05:58:58;;;;;;;;;47.25;38.00;;;;;-146.80;100.00;64830.25;5093860;27;45434;-68
2021/09/21 06:01:24;;;;;;;;;50.00;40.25;;;;;-146.80;100.00;64830.25;5077738;27;46390;-70
2021/09/21 06:03:49;;;;;;;;;51.00;39.00;;;;;-146.80;100.00;64830.25;5076092;28;46006;-68
2021/09/21 06:06:14;;;;;;;;;53.00;41.25;;;;;-146.80;100.00;64830.25;5076041;28;45364;-65
2021/09/21 06:08:40;;;;;;;;;49.75;40.00;;;;;-146.80;100.00;64830.25;5077616;27;45651;-68
2021/09/21 06:11:05;;;;;;;;;52.75;41.50;;;;;-146.80;100.00;64830.25;5093190;27;46177;-63
2021/09/21 06:13:31;;;;;;;;;49.25;39.50;;;;;-146.80;100.00;64830.25;5077212;27;45410;-69
2021/09/21 06:15:56;;;;;;;;;49.25;39.50;;;;;-146.80;100.00;64830.25;5077158;27;45287;-72
2021/09/21 06:18:22;;;;;;;;;47.75;39.25;;;;;-146.80;100.00;64830.25;5077523;27;45370;-61
2021/09/21 06:20:48;;;;;;;;;52.25;40.00;;;;;-146.80;100.00;64830.25;5076204;27;47436;-61
2021/09/21 06:23:14;;;;;;;;;46.25;36.00;;;;;-146.80;100.00;64830.25;5077552;27;45407;-63
2021/09/21 06:25:40;;;;;;;;;49.50;38.00;;;;;-146.80;100.00;64830.25;5075947;28;45540;-62
2021/09/21 06:28:06;;;;;;;;;44.50;36.25;;;;;-146.80;100.00;64830.25;5077918;27;45435;-62
2021/09/21 06:30:32;;;;;;;;;43.00;34.50;;;;;-146.80;100.00;64830.25;5077661;27;46308;-62
2021/09/21 06:32:58;;;;;;;;;42.00;35.00;;;;;-146.80;100.00;64830.25;5078646;27;45243;-65
2021/09/21 06:35:23;;;;;;;;;46.75;36.00;;;;;-146.80;100.00;64830.25;5078245;27;45383;-64
2021/09/21 06:37:49;;;;;;;;;47.50;38.00;;;;;-146.80;100.00;64830.25;5075730;28;45406;-63
2021/09/21 06:40:15;;;;;;;;;41.00;34.25;;;;;-146.80;100.00;64830.25;5077040;27;45405;-63
2021/09/21 06:42:42;;;;;;;;;44.25;35.25;;;;;-146.80;100.00;64830.25;5076891;27;45684;-63
2021/09/21 06:45:10;;;;;;;;;40.25;32.75;;;;;-146.80;100.00;64830.25;5059088;28;45357;-63
2021/09/21 06:47:35;;;;;;;;;46.75;35.50;;;;;-146.80;100.00;64830.25;5077224;28;45597;-64
2021/09/21 06:50:01;;;;;;;;;40.00;33.25;;;;;-146.80;100.00;64830.25;5075736;28;46096;-63
2021/09/21 06:52:27;;;;;;;;;41.00;33.25;;;;;-146.80;100.00;64830.25;5076761;27;45243;-63
2021/09/21 06:54:52;;;;;;;;;38.25;33.50;;;;;-146.80;100.00;64830.25;5076551;27;45212;-63
2021/09/21 06:57:18;;;;;;;;;43.50;35.75;;;;;-146.80;100.00;64830.25;5076779;27;45556;-65
2021/09/21 06:59:43;;;;;;;;;39.25;33.00;;;;;-146.80;100.00;64830.25;5076235;27;46076;-62
2021/09/21 07:02:09;;;;;;;;;50.75;41.75;;;;;-146.80;100.00;64830.25;5076460;27;45274;-62
2021/09/21 07:04:34;;;;;;;;;43.50;33.00;;;;;-146.80;100.00;64830.25;5076491;27;45297;-61
2021/09/21 07:07:00;;;;;;;;;39.25;32.75;;;;;-146.80;100.00;64830.25;5076541;27;45460;-62
2021/09/21 07:09:25;;;;;;;;;37.75;32.00;;;;;-146.80;100.00;64830.25;5076956;27;45869;-64
2021/09/21 07:11:51;;;;;;;;;36.25;33.00;;;;;-146.80;100.00;64830.25;5075564;28;45812;-63
2021/09/21 07:14:18;;;;;;;;;39.75;34.75;;;;;-146.80;100.00;64830.25;5077138;27;45435;-63
2021/09/21 07:16:43;;;;;;;;;42.75;33.50;;;;;-146.80;100.00;64830.25;5077483;27;45522;-64
2021/09/21 07:19:09;;;;;;;;;38.50;31.75;;;;;-146.80;100.00;64830.25;5077019;27;46326;-64
2021/09/21 07:21:35;;;;;;;;;36.25;33.00;;;;;-146.80;100.00;64830.25;5076558;27;45406;-64
2021/09/21 07:24:00;;;;;;;;;35.75;29.00;;;;;-146.80;100.00;64830.25;5076283;28;45453;-63
2021/09/21 07:26:26;;;;;;;;;33.50;30.00;;;;;-146.80;100.00;64830.25;5076529;27;45373;-63
2021/09/21 07:28:51;;;;;;;;;45.25;33.75;;;;;-146.80;100.00;64830.25;5075132;28;47260;-62
2021/09/21 07:31:17;;;;;;;;;36.50;29.25;;;;;-146.80;100.00;64830.25;5076185;27;45313;-63
2021/09/21 07:33:44;;;;;;;;;36.75;31.50;;;;;-146.80;100.00;64830.25;5076388;28;45288;-64
2021/09/21 07:36:09;;;;;;;;;36.25;31.25;;;;;-146.80;100.00;64830.25;5076813;27;45508;-65
2021/09/21 07:38:35;;;;;;;;;33.50;30.00;;;;;-146.80;100.00;64830.25;5076079;28;45611;-63
2021/09/21 07:41:00;;;;;;;;;23.75;23.00;;;;;-146.80;100.00;64830.25;5076211;28;45231;-62
2021/09/21 07:43:26;;;;;;;;;27.50;25.50;;;;;-146.80;100.00;64830.25;5091855;27;45418;-62
2021/09/21 07:45:52;;;;;;;;;32.00;30.00;;;;;-146.80;100.00;64830.25;5091460;27;45344;-63
2021/09/21 07:48:20;;;;;;;;;29.75;26.25;;;;;-146.80;100.00;64830.25;5075771;27;46500;-63
2021/09/21 07:50:51;;;;;;;;;33.25;27.25;;;;;-146.80;100.00;64830.25;5076146;27;45481;-63
2021/09/21 07:53:16;;;;;;;;;29.00;28.75;;;;;-146.80;100.00;64830.25;5076698;27;45472;-62
2021/09/21 07:55:42;;;;;;;;;27.75;24.25;;;;;-146.80;100.00;64830.25;5075268;27;45325;-65
2021/09/21 07:58:07;;;;;;;;;29.50;27.25;;;;;-146.80;100.00;64830.25;5075622;27;45334;-64
2021/09/21 08:00:33;;;;;;;;;25.25;23.25;;;;;-146.80;100.00;64830.25;5074421;28;45359;-61
2021/09/21 08:02:58;;;;;;;;;27.75;24.75;;;;;-146.80;100.00;64830.25;5076253;27;45435;-62
2021/09/21 08:05:24;;;;;;;;;23.00;22.00;;;;;-146.80;100.00;64830.25;5076440;28;45443;-62
2021/09/21 08:07:49;;;;;;;;;28.50;25.00;;;;;-146.80;100.00;64830.25;5075725;28;46206;-62
2021/09/21 08:10:16;;;;;;;;;21.75;20.50;;;;;-146.80;100.00;64830.25;5076115;27;45358;-64
2021/09/21 08:12:42;;;;;;;;;21.00;20.00;;;;;-146.80;100.00;64830.25;5075170;28;45213;-63
2021/09/21 08:15:09;;;;;;;;;19.00;18.25;;;;;-146.80;100.00;64830.25;5076026;28;45508;-63
2021/09/21 08:17:35;;;;;;;;;21.00;18.25;;;;;-146.80;100.00;64830.25;5075826;27;46216;-61
2021/09/21 08:20:01;;;;;;;;;20.00;19.00;;;;;-146.80;100.00;64830.25;5075668;27;45229;-63
2021/09/21 08:22:26;;;;;;;;;20.00;16.75;;;;;-146.80;100.00;64830.25;5090837;27;45474;-64
2021/09/21 08:24:52;;;;;;;;;20.00;15.50;;;;;-146.80;100.00;64830.25;5075732;28;45380;-62
2021/09/21 08:27:18;;;;;;;;;16.25;15.50;;;;;-146.80;100.00;64830.25;5075340;27;45637;-62
2021/09/21 08:29:44;;;;;;;;;21.00;18.25;;;;;-146.80;100.00;64830.25;5075459;27;45363;-64
2021/09/21 08:32:09;;;;;;;;;15.75;15.25;;;;;-146.80;100.00;64830.25;5075458;28;45386;-62
2021/09/21 08:34:34;;;;;;;;;17.00;14.25;;;;;-146.80;100.00;64830.25;5075315;27;45711;-61
2021/09/21 08:37:00;;;;;;;;;16.25;15.00;;;;;-146.80;100.00;64830.25;5074808;27;45333;-62
2021/09/21 08:39:26;;;;;;;;;17.75;16.50;;;;;-146.80;100.00;64830.25;5090652;27;45372;-62
2021/09/21 08:41:53;;;;;;;;;14.25;14.25;;;;;-146.80;100.00;64830.25;5075149;27;45312;-64
2021/09/21 08:44:18;;;;;;;;;21.75;15.00;;;;;-146.80;100.00;64830.25;5073369;28;45361;-64
2021/09/21 08:46:46;;;;;;;;;18.75;18.00;;;;;-146.80;100.00;64830.25;5074928;27;46254;-63
2021/09/21 08:49:13;;;;;;;;;18.00;16.25;;;;;-146.80;100.00;64830.25;5091166;27;45899;-63
2021/09/21 08:51:39;;;;;;;;;13.50;12.50;;;;;-146.80;100.00;64830.25;5075743;27;45388;-64
2021/09/21 08:54:05;;;;;;;;;17.75;17.00;;;;;-146.80;100.00;64830.25;5075589;27;45510;-62
2021/09/21 08:56:31;;;;;;;;;11.00;11.00;;;;;-146.80;100.00;64830.25;5090478;27;45669;-63
2021/09/21 08:58:56;;;;;;;;;15.00;14.00;;;;;-146.80;100.00;64830.25;5075454;27;45987;-66
2021/09/21 09:01:22;;;;;;;;;16.00;14.75;;;;;-146.80;100.00;64830.25;5075147;27;45343;-63
2021/09/21 09:03:57;;;;;;;;;16.75;13.25;;;;;-146.80;100.00;64830.25;5090924;27;45707;-63
2021/09/21 09:06:23;;;;;;;;;15.75;13.25;;;;;-146.80;100.00;64830.25;5074320;27;46036;-64
2021/09/21 09:08:49;;;;;;;;;14.00;12.00;;;;;-146.80;100.00;64830.25;5074679;28;45447;-64
2021/09/21 09:11:23;;;;;;;;;13.25;12.00;;;;;-146.80;100.00;64830.25;5074952;27;45243;-64
2021/09/21 09:14:00;;;;;;;;;15.50;14.00;;;;;-146.80;100.00;64830.25;5075314;27;45568;-63
2021/09/21 09:16:31;;;;;;;;;16.75;14.50;;;;;-146.80;100.00;64830.25;5090572;27;45460;-62
2021/09/21 09:19:15;;;;;;;;;17.75;14.00;;;;;-146.80;100.00;64830.25;5073523;28;45335;-63
2021/09/21 09:21:43;;;;;;;;;49.25;41.25;;;;;-146.80;100.00;64830.25;5074997;27;45428;-61
2021/09/21 09:24:10;;;;;;;;;13.50;13.00;;;;;-146.80;100.00;64830.25;5075061;27;45562;-64
2021/09/21 09:26:39;;;;;;;;;17.50;15.50;;;;;-146.80;100.00;64830.25;5074533;27;46240;-62
2021/09/21 09:29:14;;;;;;;;;16.75;16.75;;;;;-146.80;100.00;64830.25;5072909;28;45442;-62
2021/09/21 09:31:42;;;;;;;;;16.00;15.75;;;;;-146.80;100.00;64830.25;5074208;28;45338;-62
2021/09/21 09:34:14;;;;;;;;;18.50;15.50;;;;;-146.80;100.00;64830.25;5072915;28;45208;-62
2021/09/21 09:36:59;;;;;;;;;14.75;13.75;;;;;-146.80;100.00;64830.25;5074119;27;46179;-63
2021/09/21 09:39:29;;;;;;;;;18.75;15.25;;;;;-146.80;100.00;64830.25;5074235;27;45433;-64
2021/09/21 09:41:57;;;;;;;;;17.50;14.50;;;;;-146.80;100.00;64830.25;5074650;28;45258;-64
2021/09/21 09:44:29;;;;;;;;;20.50;17.75;;;;;-146.80;100.00;64830.25;5074294;27;45432;-64
2021/09/21 09:47:06;;;;;;;;;19.50;18.00;;;;;-146.80;100.00;64830.25;5089660;27;48131;-65
2021/09/21 09:49:45;;;;;;;;;21.75;20.75;;;;;-146.80;100.00;64830.25;5074385;27;45446;-64
2021/09/21 09:52:18;;;;;;;;;20.25;17.25;;;;;-146.80;100.00;64830.25;5089783;27;45762;-63
2021/09/21 09:54:48;;;;;;;;;21.50;21.25;;;;;-146.80;100.00;64830.25;5074640;28;45629;-63
2021/09/21 09:57:15;;;;;;;;;20.25;20.00;;;;;-146.80;100.00;64830.25;5076569;27;46296;-62
2021/09/21 09:59:41;;;;;;;;;21.00;19.00;;;;;-146.80;100.00;64830.25;5077636;27;45321;-64
2021/09/21 10:02:07;;;;;;;;;21.50;18.00;;;;;-146.80;100.00;64830.25;5077463;27;45295;-63
2021/09/21 10:04:33;;;;;;;;;22.75;18.50;;;;;-146.80;100.00;64830.25;5077714;27;45346;-64
2021/09/21 10:06:59;;;;;;;;;20.75;18.75;;;;;-146.80;100.00;64830.25;5092104;27;46166;-64
2021/09/21 10:09:24;;;;;;;;;29.25;26.50;;;;;-146.80;100.00;64830.25;5077279;27;45295;-63
2021/09/21 10:11:54;;;;;;;;;21.50;17.50;;;;;-146.80;100.00;64830.25;5077463;27;45376;-63
2021/09/21 10:14:21;;;;;;;;;20.50;19.75;;;;;-146.80;100.00;64830.25;5077203;27;45355;-63
2021/09/21 10:16:58;;;;;;;;;20.25;18.75;;;;;-146.80;100.00;64830.25;5076802;27;45404;-64
2021/09/21 10:19:25;;;;;;;;;24.50;19.75;;;;;-146.80;100.00;64830.25;5076850;27;45272;-62
2021/09/21 10:21:53;;;;;;;;;21.50;21.50;;;;;-146.80;100.00;64830.25;5075700;28;45461;-63
2021/09/21 10:24:32;;;;;;;;;29.50;23.75;;;;;-146.80;100.00;64830.25;5077389;27;45496;-64
2021/09/21 10:27:04;;;;;;;;;23.25;18.50;;;;;-146.80;100.00;64830.25;5076700;27;46255;-62
2021/09/21 10:29:31;;;;;;;;;24.50;20.75;;;;;-146.80;100.00;64830.25;5074994;28;45295;-65
2021/09/21 10:31:58;;;;;;;;;23.00;19.75;;;;;-146.80;100.00;64830.25;5076609;27;45464;-63
2021/09/21 10:34:24;;;;;;;;;24.50;21.00;;;;;-146.80;100.00;64830.25;5075707;28;45476;-63
2021/09/21 10:36:52;;;;;;;;;28.00;23.75;;;;;-146.80;100.00;64830.25;5077170;27;46513;-62
2021/09/21 10:39:20;;;;;;;;;23.00;19.25;;;;;-146.80;100.00;64830.25;5076145;28;45557;-64
2021/09/21 10:41:47;;;;;;;;;23.75;20.75;;;;;-146.80;100.00;64830.25;5077611;27;45322;-67
2021/09/21 10:44:12;;;;;;;;;28.00;24.50;;;;;-146.80;100.00;64830.25;5077215;28;45394;-64
2021/09/21 10:46:56;;;;;;;;;34.50;27.75;;;;;-146.80;100.00;64830.25;5075891;27;45334;-61
2021/09/21 10:49:35;;;;;;;;;20.25;18.00;;;;;-146.80;100.00;64830.25;5076473;27;45330;-64
2021/09/21 10:52:05;;;;;;;;;27.00;23.25;;;;;-146.80;100.00;64830.25;5091868;27;45423;-66
2021/09/21 10:54:39;;;;;;;;;24.25;20.50;;;;;-146.80;100.00;64830.25;5076906;27;45401;-65
2021/09/21 10:57:10;;;;;;;;;22.50;20.75;;;;;-146.80;100.00;64830.25;5076201;27;45298;-66
2021/09/21 10:59:41;;;;;;;;;26.25;21.25;;;;;-146.80;100.00;64830.25;5077084;27;45244;-63
2021/09/21 11:02:10;;;;;;;;;21.75;20.50;;;;;-146.80;100.00;64830.25;5076758;27;45594;-62
2021/09/21 11:04:43;;;;;;;;;22.50;22.00;;;;;-146.80;100.00;64830.25;5076664;27;45416;-64